MAUNA LOA HI US current weather conditions

sailwx.info

Wind from 090 at 4 knots gusting 11

Air temperature 21.7° C
Dewpoint 10.2° C

Last reported at 2014-Oct-24 23:34 UTC.
Time now 2014-Oct-25 00:39 UTC

Location: N 19°28' W 155°22'.
View on Google Maps.

See reports from other nearby stations

  
Tides and Currents Weather Stations Pressure Air Temp Water Temp Dewpoint Dewpoint Depression Visibility Wind Speed Wind Dir Waves Ship Positions
date/time (UTC)wind fromknots sea level pressurealtimeterstation pressurevisibilityair tempwater tempwave heightnotes
2014-Oct-24 23:34 090 4 gusting 11 21.7
2014-Oct-24 22:34 057 4 gusting 11 21.7
2014-Oct-24 21:34 060 5 gusting 12 21.7
2014-Oct-24 20:34 054 3 gusting 8 21.7
2014-Oct-24 19:34 039 3 gusting 9 20.0
2014-Oct-24 18:34 332 4 gusting 10 15.0
2014-Oct-24 17:34 026 4 gusting 8 15.6
2014-Oct-24 16:34 314 5 gusting 8 12.2
2014-Oct-24 15:34 348 4 gusting 10 12.8
2014-Oct-24 13:34 001 3 gusting 6 13.3
2014-Oct-24 12:34 338 3 gusting 9 13.3
2014-Oct-24 11:34 004 3 gusting 7 13.9
2014-Oct-24 10:34 003 4 gusting 9 14.4
2014-Oct-24 09:34 326 3 gusting 8 13.3
2014-Oct-24 08:34 311 6 gusting 13 13.3
2014-Oct-24 07:34 314 6 gusting 12 13.3
2014-Oct-24 06:34 324 6 gusting 9 12.2
2014-Oct-24 05:34 316 3 gusting 8 12.8
2014-Oct-24 04:34 335 4 gusting 11 14.4
2014-Oct-24 03:34 012 6 gusting 14 14.4
2014-Oct-24 02:34 024 7 gusting 15 16.1
2014-Oct-24 01:34 035 6 gusting 14 16.7
2014-Oct-24 00:34 015 8 gusting 15 17.2
2014-Oct-23 23:34 011 7 gusting 14 17.2
2014-Oct-23 22:34 215 1 gusting 6 17.8
2014-Oct-23 21:34 154 4 gusting 9 18.3
2014-Oct-23 20:34 160 4 gusting 7 19.4
2014-Oct-23 19:34 166 4 gusting 7 19.4
2014-Oct-23 17:34 206 2 gusting 6 16.7
2014-Oct-23 16:34 333 2 gusting 7 11.1
2014-Oct-23 15:34 314 5 gusting 8 11.1
2014-Oct-23 14:34 315 3 gusting 6 10.0
2014-Oct-23 13:34 231 1 gusting 5 10.6
2014-Oct-23 12:34 327 1 gusting 4 11.1
2014-Oct-23 11:34 292 1 gusting 8 12.2
2014-Oct-23 10:34 311 3 gusting 6 12.8
2014-Oct-23 09:34 204 2 gusting 6 13.9
2014-Oct-23 08:34 311 5 gusting 6 14.4
2014-Oct-23 07:34 333 2 gusting 4 14.4
2014-Oct-23 06:34 251 0 gusting 4 13.9
2014-Oct-23 05:34 008 3 gusting 6 15.0
2014-Oct-23 04:34 018 5 gusting 8 15.6
2014-Oct-23 03:34 031 4 gusting 7 16.1
2014-Oct-23 02:34 046 2 gusting 5 16.7
2014-Oct-23 01:34 138 3 gusting 6 17.2
2014-Oct-23 00:34 136 1 gusting 6 17.2